Time;durP1;ratioP1;P1;durP2;ratioP2;P2;SDS_P1;SDS_P2;PMS_P1;PMS_P2;Temp;Humidity;BMP_temperature;BMP_pressure;BME280_temperature;BME280_humidity;BME280_pressure;Samples;Min_cycle;Max_cycle;Signal;HPM_P1;HPM_P2
2022/08/02 00:00:20;;;;;;;6.80;6.10;;;;;;;18.47;81.60;96674.73;108344;1267;22546;-84
2022/08/02 00:03:10;;;;;;;10.40;6.70;;;;;;;18.39;81.56;96673.52;108393;1267;24842;-84
2022/08/02 00:05:41;;;;;;;9.00;6.40;;;;;;;18.31;81.64;96673.83;108363;1267;25290;-84
2022/08/02 00:08:13;;;;;;;6.50;5.70;;;;;;;18.25;81.72;96671.91;108146;1267;118841;-85
2022/08/02 00:10:44;;;;;;;7.30;5.70;;;;;;;18.19;82.01;96668.02;108397;1268;22552;-85
2022/08/02 00:13:16;;;;;;;6.10;5.50;;;;;;;18.12;82.14;96668.98;108426;1268;22627;-85
2022/08/02 00:15:49;;;;;;;7.40;5.70;;;;;;;18.05;82.30;96669.27;108382;1268;22614;-84
2022/08/02 00:18:22;;;;;;;9.50;6.20;;;;;;;17.99;82.44;96669.75;108161;1268;99811;-85
2022/08/02 00:20:53;;;;;;;8.20;6.60;;;;;;;17.91;82.60;96670.41;108376;1267;22623;-85
2022/08/02 00:23:25;;;;;;;8.50;6.40;;;;;;;17.85;82.75;96667.37;108355;1268;22476;-84
2022/08/02 00:26:00;;;;;;;9.60;6.60;;;;;;;17.78;82.98;96666.84;108338;1268;23069;-84
2022/08/02 00:28:33;;;;;;;6.90;6.20;;;;;;;17.75;83.12;96668.96;108169;1267;103917;-84
2022/08/02 00:31:05;;;;;;;8.30;6.30;;;;;;;17.67;83.32;96675.70;108368;1267;22561;-84
2022/08/02 00:33:36;;;;;;;9.20;6.60;;;;;;;17.61;83.72;96670.77;108376;1267;22616;-84
2022/08/02 00:36:08;;;;;;;9.70;7.00;;;;;;;17.56;84.01;96675.54;108348;1267;24302;-84
2022/08/02 00:38:43;;;;;;;9.00;7.40;;;;;;;17.56;84.20;96680.42;108202;1267;78681;-84
2022/08/02 00:41:16;;;;;;;9.20;8.10;;;;;;;17.55;84.37;96680.61;108375;1267;23775;-84
2022/08/02 00:43:50;;;;;;;9.30;8.40;;;;;;;17.57;84.59;96680.04;108360;1267;22633;-82
2022/08/02 00:46:22;;;;;;;13.10;9.10;;;;;;;17.56;84.71;96684.42;108381;1267;22540;-83
2022/08/02 00:48:54;;;;;;;12.90;8.60;;;;;;;17.53;85.01;96683.53;107801;1268;359743;-82
2022/08/02 00:51:26;;;;;;;9.60;8.30;;;;;;;17.48;85.25;96691.91;108362;1265;22539;-83
2022/08/02 00:53:57;;;;;;;10.60;8.10;;;;;;;17.47;85.73;96694.63;108393;1267;25404;-83
2022/08/02 00:56:28;;;;;;;8.80;7.10;;;;;;;17.51;85.78;96694.95;108394;1267;22567;-82
2022/08/02 00:59:00;;;;;;;9.40;7.20;;;;;;;17.58;85.77;96690.77;108331;1267;33092;-83
2022/08/02 01:01:42;;;;;;;8.80;7.90;;;;;;;17.63;85.50;96692.38;108376;1268;22535;-82
2022/08/02 01:04:15;;;;;;;8.30;7.50;;;;;;;17.61;85.43;96691.62;108400;1267;22609;-83
2022/08/02 01:06:47;;;;;;;8.10;7.00;;;;;;;17.56;85.53;96689.15;108320;1268;30196;-82
2022/08/02 01:09:18;;;;;;;9.40;7.50;;;;;;;17.57;85.94;96686.54;108384;1267;22535;-82
2022/08/02 01:11:49;;;;;;;7.80;7.00;;;;;;;17.62;86.04;96689.73;108410;1267;24385;-82
2022/08/02 01:14:23;;;;;;;8.60;7.10;;;;;;;17.64;86.03;96689.49;108415;1267;22545;-83
2022/08/02 01:17:00;;;;;;;9.00;6.80;;;;;;;17.67;86.34;96690.92;108311;1267;35551;-82
2022/08/02 01:19:39;;;;;;;7.50;6.70;;;;;;;17.74;86.70;96691.81;108357;1267;22530;-83
2022/08/02 01:22:37;;;;;;;8.10;6.50;;;;;;;17.80;86.70;96694.46;108393;1267;22532;-83
2022/08/02 01:25:33;;;;;;;8.90;6.90;;;;;;;17.85;86.74;96695.04;108402;1267;22554;-83
2022/08/02 01:28:33;;;;;;;7.50;6.70;;;;;;;17.89;86.86;96700.05;108334;1267;44712;-83
2022/08/02 01:31:14;;;;;;;8.20;7.40;;;;;;;17.90;86.85;96696.95;108363;1267;22930;-83
2022/08/02 01:33:51;;;;;;;6.90;6.20;;;;;;;17.90;86.93;96692.58;108365;1267;24219;-83
2022/08/02 01:36:26;;;;;;;7.70;6.40;;;;;;;17.89;87.41;96690.47;108354;1266;22646;-83
2022/08/02 01:38:59;;;;;;;7.80;7.10;;;;;;;17.90;87.91;96697.23;108227;1267;85821;-82
2022/08/02 01:41:32;;;;;;;7.50;6.80;;;;;;;17.90;88.14;96692.50;108386;1267;24227;-82
2022/08/02 01:44:05;;;;;;;8.10;7.30;;;;;;;17.94;88.58;96696.02;108384;1267;22596;-82
2022/08/02 01:46:39;;;;;;;8.30;6.70;;;;;;;17.98;89.03;96695.80;108377;1268;22948;-82
2022/08/02 01:49:18;;;;;;;7.70;7.00;;;;;;;18.01;89.20;96698.59;108425;1267;22571;-83
2022/08/02 01:54:45;;;;;;;7.70;6.90;;;;;;;17.99;89.47;96698.44;108417;1268;22697;-83
2022/08/02 01:57:19;;;;;;;8.40;7.60;;;;;;;17.98;89.77;96702.30;108283;1268;31674;-83
2022/08/02 01:59:52;;;;;;;9.10;7.60;;;;;;;17.97;89.94;96703.13;108458;1268;22704;-83
2022/08/02 02:02:25;;;;;;;9.50;8.50;;;;;;;17.93;90.17;96700.43;108387;1268;22532;-82
2022/08/02 02:04:58;;;;;;;10.00;9.00;;;;;;;17.93;90.70;96701.64;108370;1268;22565;-82
2022/08/02 02:07:32;;;;;;;10.70;8.90;;;;;;;17.95;91.12;96700.42;108301;1267;32281;-82
2022/08/02 02:10:05;;;;;;;9.80;8.90;;;;;;;17.95;91.19;96702.34;108355;1268;22553;-82
2022/08/02 02:12:39;;;;;;;9.60;8.60;;;;;;;17.96;91.51;96700.45;108379;1268;23716;-82
2022/08/02 02:15:14;;;;;;;9.50;8.60;;;;;;;17.95;91.50;96702.66;108336;1268;22571;-82
2022/08/02 02:17:48;;;;;;;9.90;9.00;;;;;;;17.90;91.44;96706.98;108283;1267;30682;-82
2022/08/02 02:20:21;;;;;;;10.50;9.60;;;;;;;17.86;91.68;96707.34;108388;1268;23860;-82
2022/08/02 02:22:53;;;;;;;11.00;9.90;;;;;;;17.84;91.99;96706.50;108412;1267;23323;-83
2022/08/02 02:25:27;;;;;;;10.20;9.20;;;;;;;17.86;92.34;96704.74;108326;1267;22523;-82
2022/08/02 02:28:04;;;;;;;11.00;10.00;;;;;;;17.87;92.28;96703.55;108325;1268;29364;-82
2022/08/02 02:30:38;;;;;;;10.20;9.30;;;;;;;17.86;92.35;96706.26;108408;1267;22578;-82
2022/08/02 02:33:12;;;;;;;9.90;8.90;;;;;;;17.84;92.33;96705.33;108350;1268;24186;-82
2022/08/02 02:35:45;;;;;;;9.10;8.30;;;;;;;17.82;92.42;96706.79;108365;1265;24990;-83
2022/08/02 02:38:19;;;;;;;13.10;10.50;;;;;;;17.82;92.62;96708.24;108315;1268;31628;-83
2022/08/02 02:40:51;;;;;;;11.90;10.80;;;;;;;17.84;92.55;96706.40;108358;1267;22548;-83
2022/08/02 02:43:25;;;;;;;10.70;9.60;;;;;;;17.86;92.57;96708.41;108357;1268;22691;-83
2022/08/02 02:45:57;;;;;;;11.00;9.00;;;;;;;17.86;91.86;96712.02;108452;1267;22452;-83
2022/08/02 02:48:30;;;;;;;9.00;8.10;;;;;;;17.81;91.34;96710.90;108279;1268;27425;-83
2022/08/02 02:51:04;;;;;;;9.80;8.80;;;;;;;17.74;90.86;96710.77;108344;1268;25317;-83
2022/08/02 02:53:38;;;;;;;8.50;7.70;;;;;;;17.67;90.71;96709.70;108335;1270;25850;-83
2022/08/02 02:56:12;;;;;;;11.00;9.10;;;;;;;17.61;90.72;96708.90;108347;1269;25366;-83
2022/08/02 02:58:44;;;;;;;9.30;8.30;;;;;;;17.57;90.92;96707.64;108171;1270;66208;-83
2022/08/02 03:01:30;;;;;;;9.90;9.00;;;;;;;17.51;90.85;96708.11;108349;1269;22640;-83
2022/08/02 03:04:03;;;;;;;10.40;8.70;;;;;;;17.45;90.96;96712.09;108380;1268;22527;-83
2022/08/02 03:06:37;;;;;;;9.80;8.80;;;;;;;17.42;90.98;96717.30;108357;1268;22548;-83
2022/08/02 03:09:11;;;;;;;10.80;9.40;;;;;;;17.37;91.02;96719.49;108226;1270;22566;-82
2022/08/02 03:11:45;;;;;;;10.00;8.90;;;;;;;17.30;91.33;96721.17;108355;1268;22595;-83
2022/08/02 03:14:17;;;;;;;9.90;8.90;;;;;;;17.27;91.85;96719.59;108267;1270;25243;-82
2022/08/02 03:16:50;;;;;;;9.90;9.10;;;;;;;17.35;92.72;96725.05;108201;1268;79612;-82
2022/08/02 03:19:23;;;;;;;9.70;8.80;;;;;;;17.40;92.49;96724.17;108371;1267;24282;-82
2022/08/02 03:21:54;;;;;;;9.30;8.00;;;;;;;17.39;92.42;96722.10;108372;1267;24271;-82
2022/08/02 03:24:25;;;;;;;10.50;8.60;;;;;;;17.39;92.48;96726.02;108373;1265;22611;-82
2022/08/02 03:26:56;;;;;;;9.50;8.60;;;;;;;17.43;92.61;96724.64;108281;1267;58855;-82
2022/08/02 03:29:28;;;;;;;10.80;9.40;;;;;;;17.46;92.75;96721.78;108374;1267;25221;-82
2022/08/02 03:31:59;;;;;;;10.40;9.40;;;;;;;17.47;92.73;96723.45;108378;1267;22538;-83
2022/08/02 03:34:31;;;;;;;10.10;9.10;;;;;;;17.48;92.64;96720.33;108499;1267;22551;-82
2022/08/02 03:37:03;;;;;;;10.30;9.30;;;;;;;17.50;92.65;96719.11;108336;1267;28325;-82
2022/08/02 03:39:35;;;;;;;10.10;8.90;;;;;;;17.53;92.57;96720.58;108392;1267;22536;-82
2022/08/02 03:42:08;;;;;;;10.00;9.10;;;;;;;17.56;92.54;96721.33;108378;1267;22727;-82
2022/08/02 03:44:40;;;;;;;9.80;8.80;;;;;;;17.59;92.56;96725.20;108386;1267;23222;-81
2022/08/02 03:47:13;;;;;;;9.30;8.40;;;;;;;17.65;92.64;96729.83;108341;1267;25862;-83
2022/08/02 03:49:47;;;;;;;9.50;7.40;;;;;;;17.70;92.58;96730.75;108386;1267;22546;-83
2022/08/02 03:52:19;;;;;;;10.40;8.50;;;;;;;17.75;92.97;96733.45;108362;1267;22682;-83
2022/08/02 03:54:50;;;;;;;9.00;8.20;;;;;;;17.82;93.38;96731.08;108399;1267;22524;-83
2022/08/02 03:57:22;;;;;;;8.40;7.60;;;;;;;17.88;93.42;96730.50;108264;1267;34227;-83
2022/08/02 03:59:53;;;;;;;8.80;8.00;;;;;;;17.95;93.34;96734.92;108360;1267;22597;-83
2022/08/02 04:02:24;;;;;;;9.70;8.80;;;;;;;18.00;93.32;96738.77;108351;1267;22523;-83
2022/08/02 04:04:57;;;;;;;10.30;9.30;;;;;;;18.02;93.40;96741.96;108347;1267;22846;-83
2022/08/02 04:07:28;;;;;;;10.10;9.10;;;;;;;18.05;93.43;96749.33;108271;1267;36519;-83
2022/08/02 04:09:59;;;;;;;8.80;8.00;;;;;;;18.07;93.32;96751.81;108369;1270;25274;-83
2022/08/02 04:12:30;;;;;;;9.10;8.20;;;;;;;18.09;93.33;96754.20;108349;1269;22630;-81
2022/08/02 04:15:05;;;;;;;8.20;7.40;;;;;;;18.09;93.33;96758.08;108344;1268;23108;-81
2022/08/02 04:17:40;;;;;;;8.60;7.30;;;;;;;18.09;93.39;96759.41;108291;1267;24525;-82
2022/08/02 04:20:18;;;;;;;7.30;6.60;;;;;;;18.10;93.46;96769.16;108384;1267;22546;-81
2022/08/02 04:22:53;;;;;;;8.50;7.50;;;;;;;18.09;93.51;96770.27;108354;1268;22563;-81
2022/08/02 04:25:26;;;;;;;9.40;8.50;;;;;;;18.08;93.63;96775.16;108401;1267;25297;-80
2022/08/02 04:27:58;;;;;;;10.20;8.80;;;;;;;18.09;93.61;96780.30;108353;1267;29632;-81
2022/08/02 04:30:30;;;;;;;9.70;8.70;;;;;;;18.08;93.45;96783.43;108449;1267;22781;-81
2022/08/02 04:33:02;;;;;;;9.50;8.50;;;;;;;18.08;93.50;96783.72;108409;1267;22528;-80
2022/08/02 04:35:34;;;;;;;9.30;8.30;;;;;;;18.07;93.38;96779.25;108470;1267;22538;-80
2022/08/02 04:38:06;;;;;;;9.20;8.30;;;;;;;18.08;93.32;96782.20;108272;1270;29320;-81
2022/08/02 04:40:38;;;;;;;9.00;8.10;;;;;;;18.09;93.25;96787.06;108421;1270;23254;-80
2022/08/02 04:43:10;;;;;;;8.30;7.50;;;;;;;18.09;93.04;96788.22;108409;1270;22545;-81
2022/08/02 04:45:42;;;;;;;10.80;7.90;;;;;;;18.09;92.93;96785.10;108382;1270;23008;-80
2022/08/02 04:48:14;;;;;;;8.50;7.70;;;;;;;18.11;92.89;96791.36;108317;1270;51678;-80
2022/08/02 04:50:46;;;;;;;8.80;7.90;;;;;;;18.13;92.81;96793.95;108475;1265;22670;-80
2022/08/02 04:53:17;;;;;;;8.10;7.30;;;;;;;18.15;92.64;96795.17;108418;1267;22653;-80
2022/08/02 04:55:49;;;;;;;8.30;6.80;;;;;;;18.16;92.50;96795.54;108480;1267;23322;-77
2022/08/02 04:58:22;;;;;;;6.80;6.20;;;;;;;18.18;92.34;96797.48;108324;1267;34442;-79
2022/08/02 05:00:53;;;;;;;7.40;6.70;;;;;;;18.20;92.01;96794.18;108401;1267;22554;-78
2022/08/02 05:03:27;;;;;;;6.90;6.30;;;;;;;18.22;91.88;96797.08;108412;1267;22577;-79
2022/08/02 05:05:59;;;;;;;7.20;6.30;;;;;;;18.24;91.76;96796.49;108444;1267;25471;-83
2022/08/02 05:08:30;;;;;;;6.80;6.10;;;;;;;18.26;91.53;96795.63;108415;1267;28697;-83
2022/08/02 05:11:01;;;;;;;7.80;6.80;;;;;;;18.28;91.45;96799.77;108547;1267;22598;-85
2022/08/02 05:13:33;;;;;;;7.30;6.60;;;;;;;18.30;91.31;96799.70;108672;1267;22652;-83
2022/08/02 05:16:04;;;;;;;8.30;6.60;;;;;;;18.32;91.21;96802.73;108540;1267;22548;-83
2022/08/02 05:18:36;;;;;;;7.20;6.50;;;;;;;18.35;91.04;96802.67;108401;1268;28189;-82
2022/08/02 05:21:07;;;;;;;7.00;6.30;;;;;;;18.37;91.11;96802.47;108480;1270;22715;-82
2022/08/02 05:23:38;;;;;;;7.10;6.40;;;;;;;18.40;90.95;96804.02;108427;1268;23611;-82
2022/08/02 05:26:10;;;;;;;7.30;6.60;;;;;;;18.43;90.99;96803.28;108322;1270;22703;-82
2022/08/02 05:28:41;;;;;;;7.40;6.30;;;;;;;18.47;90.93;96803.30;108352;1268;26722;-83
2022/08/02 05:31:12;;;;;;;7.00;6.30;;;;;;;18.51;90.75;96800.92;108337;1270;22524;-82
2022/08/02 05:33:44;;;;;;;7.60;6.80;;;;;;;18.54;90.57;96808.48;108339;1268;22702;-83
2022/08/02 05:36:16;;;;;;;7.50;6.80;;;;;;;18.61;90.63;96806.84;108473;1268;22519;-83
2022/08/02 05:38:47;;;;;;;7.40;6.70;;;;;;;18.75;90.53;96807.95;108250;1268;30530;-82
2022/08/02 05:41:20;;;;;;;6.80;6.20;;;;;;;18.86;90.23;96809.36;108497;1268;22670;-82
2022/08/02 05:43:52;;;;;;;6.40;5.80;;;;;;;18.92;89.68;96809.20;108353;1268;22595;-83
2022/08/02 05:46:23;;;;;;;7.00;6.40;;;;;;;18.94;89.43;96810.57;108315;1270;22544;-83
2022/08/02 05:48:54;;;;;;;6.70;6.10;;;;;;;18.97;89.15;96813.66;108280;1267;34635;-83
2022/08/02 05:51:31;;;;;;;6.00;5.40;;;;;;;19.01;88.86;96817.52;108348;1267;22541;-83
2022/08/02 05:54:16;;;;;;;6.10;5.50;;;;;;;19.03;88.44;96817.45;108334;1267;22541;-83
2022/08/02 05:57:01;;;;;;;6.70;6.10;;;;;;;19.06;88.02;96820.45;108298;1267;30195;-82
2022/08/02 05:59:44;;;;;;;7.30;6.40;;;;;;;19.08;87.89;96827.51;108390;1267;22686;-82
2022/08/02 06:02:27;;;;;;;5.80;5.30;;;;;;;19.11;87.66;96826.69;108346;1265;25293;-83
2022/08/02 06:05:04;;;;;;;5.90;5.30;;;;;;;19.15;87.59;96826.10;108362;1267;23258;-83
2022/08/02 06:07:37;;;;;;;8.40;5.60;;;;;;;19.17;86.99;96834.16;108277;1267;59269;-83
2022/08/02 06:10:12;;;;;;;5.90;5.40;;;;;;;19.19;87.09;96829.48;108363;1267;24976;-83
2022/08/02 06:12:56;;;;;;;5.80;5.30;;;;;;;19.26;87.06;96830.57;108366;1267;22711;-83
2022/08/02 06:15:27;;;;;;;5.80;5.30;;;;;;;19.32;86.67;96831.95;108369;1267;22534;-83
2022/08/02 06:18:00;;;;;;;5.90;5.00;;;;;;;19.37;86.31;96835.13;108296;1267;43983;-82
2022/08/02 06:20:34;;;;;;;8.10;5.90;;;;;;;19.42;86.08;96837.41;108371;1267;22598;-83
2022/08/02 06:23:06;;;;;;;5.50;5.00;;;;;;;19.46;86.32;96841.22;108429;1267;25374;-83
2022/08/02 06:25:41;;;;;;;5.80;5.20;;;;;;;19.51;86.03;96841.48;108345;1267;22591;-83
2022/08/02 06:28:13;;;;;;;5.70;5.20;;;;;;;19.50;85.61;96846.05;108202;1267;104763;-83
2022/08/02 06:30:46;;;;;;;5.40;4.90;;;;;;;19.47;85.40;96844.72;108408;1267;22526;-83
2022/08/02 06:33:17;;;;;;;6.30;5.60;;;;;;;19.49;85.55;96848.77;108396;1267;22613;-82
2022/08/02 06:36:03;;;;;;;6.30;5.70;;;;;;;19.58;85.90;96853.10;108358;1267;22637;-83
2022/08/02 06:38:41;;;;;;;6.10;5.50;;;;;;;19.68;85.31;96857.91;108289;1267;30923;-82
2022/08/02 06:41:15;;;;;;;5.90;5.40;;;;;;;19.69;84.87;96856.56;108381;1268;25373;-82
2022/08/02 06:43:53;;;;;;;6.10;5.30;;;;;;;19.76;85.17;96863.52;108323;1270;22542;-83
2022/08/02 06:46:24;;;;;;;6.80;6.00;;;;;;;19.92;84.97;96870.84;108379;1269;24202;-83
2022/08/02 06:48:56;;;;;;;6.30;5.70;;;;;;;20.13;84.86;96870.39;108261;1268;35960;-82
2022/08/02 06:51:28;;;;;;;6.30;5.70;;;;;;;20.20;84.16;96870.00;108376;1269;22558;-83
2022/08/02 06:54:00;;;;;;;5.70;5.20;;;;;;;20.23;84.14;96867.63;108336;1268;23577;-83
2022/08/02 06:56:31;;;;;;;4.60;4.20;;;;;;;21.26;85.12;96866.45;108340;1270;23283;-82
2022/08/02 06:59:04;;;;;;;4.60;4.20;;;;;;;23.12;77.98;96862.50;108218;1270;38573;-83
2022/08/02 07:01:36;;;;;;;3.80;3.50;;;;;;;25.22;73.47;96860.27;108348;1270;22527;-83
2022/08/02 07:04:08;;;;;;;3.70;3.30;;;;;;;26.89;65.50;96861.55;108365;1270;24243;-83
2022/08/02 07:06:39;;;;;;;4.60;3.30;;;;;;;27.76;62.34;96856.48;108347;1269;22810;-83
2022/08/02 07:09:10;;;;;;;3.00;2.80;;;;;;;28.75;59.96;96862.61;108373;1270;22587;-81
2022/08/02 07:11:42;;;;;;;3.40;3.10;;;;;;;28.46;56.54;96860.30;108345;1268;22597;-83
2022/08/02 07:14:13;;;;;;;4.30;3.20;;;;;;;26.32;56.54;96861.10;108332;1270;23256;-84
2022/08/02 07:16:45;;;;;;;3.70;3.30;;;;;;;24.59;58.50;96863.66;108266;1270;29953;-83
2022/08/02 07:19:16;;;;;;;3.60;3.30;;;;;;;23.37;61.63;96862.31;108399;1269;22692;-84
2022/08/02 07:21:48;;;;;;;3.50;3.20;;;;;;;23.90;64.95;96862.48;108391;1270;22536;-84
2022/08/02 07:24:19;;;;;;;3.50;3.20;;;;;;;25.69;62.81;96861.92;108339;1268;24171;-84
2022/08/02 07:26:51;;;;;;;3.50;3.10;;;;;;;26.70;59.06;96861.95;108294;1270;24210;-84
2022/08/02 07:29:22;;;;;;;3.00;2.80;;;;;;;27.26;57.21;96861.02;108334;1270;23932;-84
2022/08/02 07:31:53;;;;;;;3.50;3.20;;;;;;;27.06;54.03;96860.48;108370;1270;22574;-84
2022/08/02 07:34:24;;;;;;;3.50;3.20;;;;;;;26.56;57.28;96864.36;108336;1270;22579;-83
2022/08/02 07:36:55;;;;;;;3.10;2.90;;;;;;;28.30;56.97;96858.09;108264;1270;48399;-84
2022/08/02 07:39:26;;;;;;;4.00;2.70;;;;;;;29.22;52.86;96860.31;108352;1270;23918;-84
2022/08/02 07:41:58;;;;;;;3.00;2.80;;;;;;;28.53;50.79;96860.11;108374;1270;24231;-85
2022/08/02 07:44:33;;;;;;;2.90;2.70;;;;;;;28.82;52.77;96862.89;108345;1270;22542;-82
2022/08/02 07:47:05;;;;;;;2.80;2.50;;;;;;;30.76;50.44;96858.33;108246;1270;30305;-84
2022/08/02 07:49:36;;;;;;;2.40;2.20;;;;;;;31.74;46.80;96855.39;108367;1270;22522;-84
2022/08/02 07:52:08;;;;;;;3.00;2.20;;;;;;;32.73;46.05;96857.11;108349;1270;22660;-85
2022/08/02 07:54:39;;;;;;;2.50;2.30;;;;;;;33.41;42.59;96860.56;108359;1270;22571;-84
2022/08/02 07:57:10;;;;;;;2.50;2.30;;;;;;;32.49;43.08;96864.17;108204;1269;94077;-84
2022/08/02 07:59:41;;;;;;;2.20;2.10;;;;;;;33.16;43.39;96864.15;108322;1270;22623;-84
2022/08/02 08:02:13;;;;;;;2.80;2.60;;;;;;;32.88;43.74;96864.48;108340;1270;24257;-84
2022/08/02 08:04:45;;;;;;;2.70;2.50;;;;;;;33.88;43.14;96863.59;108343;1270;22719;-84
2022/08/02 08:07:16;;;;;;;2.70;2.10;;;;;;;34.56;40.33;96861.74;108166;1267;80744;-82
2022/08/02 08:09:49;;;;;;;2.60;2.30;;;;;;;33.74;40.03;96861.88;108370;1267;24250;-81
2022/08/02 08:12:22;;;;;;;2.00;1.90;;;;;;;33.83;39.16;96863.96;108375;1267;22550;-81
2022/08/02 08:14:53;;;;;;;1.90;1.80;;;;;;;34.69;38.76;96861.42;108378;1267;22526;-81
2022/08/02 08:17:25;;;;;;;2.50;1.80;;;;;;;34.51;35.49;96857.27;108324;1266;24926;-83
2022/08/02 08:19:58;;;;;;;1.80;1.70;;;;;;;33.86;37.04;96860.45;108384;1267;23492;-84
2022/08/02 08:22:29;;;;;;;2.20;2.00;;;;;;;34.18;37.41;96861.02;108374;1267;25366;-82
2022/08/02 08:25:00;;;;;;;2.40;2.20;;;;;;;33.49;38.77;96856.71;108350;1267;22576;-82
2022/08/02 08:27:31;;;;;;;1.80;1.70;;;;;;;34.76;40.31;96859.91;108324;1267;25968;-82
2022/08/02 08:30:03;;;;;;;2.50;2.30;;;;;;;37.05;37.64;96858.58;108401;1267;22537;-81
2022/08/02 08:32:35;;;;;;;3.20;2.70;;;;;;;37.89;37.45;96860.44;108383;1267;22738;-83
2022/08/02 08:35:07;;;;;;;2.90;2.40;;;;;;;36.85;36.38;96861.45;108386;1267;24311;-83
2022/08/02 08:37:39;;;;;;;3.60;3.10;;;;;;;33.90;36.40;96862.21;108314;1267;26755;-83
2022/08/02 08:40:13;;;;;;;3.70;3.40;;;;;;;33.68;39.47;96865.32;108389;1267;23780;-81
2022/08/02 08:42:44;;;;;;;3.40;3.10;;;;;;;35.43;39.12;96866.92;108373;1267;22627;-82
2022/08/02 08:45:16;;;;;;;4.00;2.90;;;;;;;35.02;37.76;96868.30;108400;1267;23924;-82
2022/08/02 08:47:52;;;;;;;3.00;2.70;;;;;;;34.83;38.02;96865.41;108302;1267;34915;-82
2022/08/02 08:50:26;;;;;;;3.00;2.80;;;;;;;34.69;38.73;96868.02;108378;1267;22570;-82
2022/08/02 08:53:04;;;;;;;4.30;2.80;;;;;;;35.17;35.85;96868.73;108372;1267;22637;-82
2022/08/02 08:55:37;;;;;;;2.80;2.60;;;;;;;35.17;36.27;96867.45;108360;1267;22682;-82
2022/08/02 08:58:09;;;;;;;2.40;2.30;;;;;;;35.76;37.35;96868.20;108282;1267;30826;-82
2022/08/02 09:00:41;;;;;;;3.00;2.80;;;;;;;35.47;35.87;96863.62;108368;1267;22549;-83
2022/08/02 09:03:12;;;;;;;3.30;3.00;;;;;;;33.19;36.46;96864.34;108378;1267;22670;-83
2022/08/02 09:05:45;;;;;;;3.30;3.00;;;;;;;33.02;39.37;96864.66;108372;1267;22511;-82
2022/08/02 09:08:18;;;;;;;3.90;3.40;;;;;;;33.17;37.67;96867.36;108315;1267;26822;-82
2022/08/02 09:10:50;;;;;;;3.20;3.00;;;;;;;30.38;39.95;96874.92;108382;1267;22536;-83
2022/08/02 09:13:23;;;;;;;3.10;2.80;;;;;;;30.23;41.97;96876.63;108398;1267;22916;-82
2022/08/02 09:15:59;;;;;;;3.20;3.00;;;;;;;28.94;42.12;96877.84;108423;1266;22716;-82
2022/08/02 09:18:35;;;;;;;3.90;3.50;;;;;;;27.35;44.72;96876.23;108304;1267;30027;-82
2022/08/02 09:21:08;;;;;;;4.20;3.70;;;;;;;27.67;46.63;96877.33;108412;1267;22586;-82
2022/08/02 09:23:45;;;;;;;3.80;3.00;;;;;;;28.36;45.60;96876.61;108375;1267;24281;-82
2022/08/02 09:26:18;;;;;;;4.30;3.80;;;;;;;27.77;45.93;96884.92;108372;1267;22523;-82
2022/08/02 09:28:51;;;;;;;5.40;3.70;;;;;;;27.23;47.51;96890.41;108328;1267;27954;-82
2022/08/02 09:31:25;;;;;;;3.80;3.50;;;;;;;27.18;48.79;96893.02;108368;1267;22542;-81
2022/08/02 09:34:00;;;;;;;4.40;4.00;;;;;;;27.03;48.51;96890.27;108387;1267;25302;-82
2022/08/02 09:36:40;;;;;;;4.40;4.00;;;;;;;26.51;49.04;96890.92;108370;1267;22544;-82
2022/08/02 09:39:14;;;;;;;4.10;3.50;;;;;;;26.11;50.48;96885.61;108349;1267;23713;-82
2022/08/02 09:41:46;;;;;;;3.40;2.90;;;;;;;25.64;50.46;96887.39;108413;1267;22557;-82
2022/08/02 09:44:18;;;;;;;3.40;3.10;;;;;;;25.38;51.51;96884.73;108403;1267;24239;-82
2022/08/02 09:46:49;;;;;;;3.30;2.70;;;;;;;25.22;51.33;96888.79;108276;1267;48315;-82
2022/08/02 09:49:21;;;;;;;2.80;2.60;;;;;;;25.28;51.91;96882.27;108446;1267;22559;-81
2022/08/02 09:51:55;;;;;;;2.60;2.40;;;;;;;25.73;53.07;96876.12;108401;1267;24981;-82
2022/08/02 09:54:28;;;;;;;3.10;2.90;;;;;;;26.01;52.74;96884.81;108466;1267;22553;-81
2022/08/02 09:57:01;;;;;;;3.40;3.10;;;;;;;26.21;53.16;96883.87;108343;1267;53238;-81
2022/08/02 09:59:33;;;;;;;3.70;2.90;;;;;;;26.45;53.16;96883.27;108413;1267;22707;-81
2022/08/02 10:02:11;;;;;;;3.40;3.00;;;;;;;26.71;52.99;96886.52;108381;1267;22561;-81
2022/08/02 10:04:42;;;;;;;3.40;3.10;;;;;;;26.48;51.81;96879.95;108410;1267;22555;-81
2022/08/02 10:07:14;;;;;;;3.30;3.00;;;;;;;25.89;51.60;96881.89;108372;1267;45052;-81
2022/08/02 10:09:47;;;;;;;3.20;2.80;;;;;;;25.52;52.20;96880.89;108394;1267;23766;-81
2022/08/02 10:12:19;;;;;;;3.30;3.00;;;;;;;25.38;53.01;96876.61;108453;1267;22541;-82
2022/08/02 10:14:52;;;;;;;2.90;2.60;;;;;;;25.81;54.64;96872.55;108472;1267;22641;-81
2022/08/02 10:17:24;;;;;;;2.80;2.60;;;;;;;26.47;54.68;96871.70;108394;1267;31043;-81
2022/08/02 10:19:56;;;;;;;2.70;2.50;;;;;;;26.94;53.95;96868.27;108391;1268;22618;-81
2022/08/02 10:22:27;;;;;;;4.50;2.80;;;;;;;27.26;53.10;96862.19;108365;1269;24400;-81
2022/08/02 10:24:59;;;;;;;2.50;2.30;;;;;;;26.90;50.74;96865.99;108419;1268;25294;-81
2022/08/02 10:27:32;;;;;;;2.10;1.90;;;;;;;26.56;51.58;96871.79;108339;1268;23812;-82
2022/08/02 10:30:04;;;;;;;3.00;2.50;;;;;;;26.69;50.43;96863.02;108456;1268;22582;-81
2022/08/02 10:32:41;;;;;;;2.10;1.90;;;;;;;26.71;50.93;96865.84;108395;1270;23109;-82
2022/08/02 10:35:18;;;;;;;2.20;2.00;;;;;;;27.01;51.77;96865.14;108395;1268;22562;-82
2022/08/02 10:37:54;;;;;;;2.90;1.90;;;;;;;27.28;50.98;96864.21;108345;1268;38856;-80
2022/08/02 10:40:26;;;;;;;2.90;2.00;;;;;;;27.00;50.06;96858.45;108413;1268;25201;-81
2022/08/02 10:42:59;;;;;;;2.90;2.30;;;;;;;26.14;50.48;96859.17;108380;1270;22555;-81
2022/08/02 10:45:31;;;;;;;2.10;1.90;;;;;;;25.58;51.71;96857.14;108421;1270;24269;-79
2022/08/02 10:48:08;;;;;;;3.00;2.70;;;;;;;25.34;52.24;96854.90;108279;1268;58198;-81
2022/08/02 10:50:56;;;;;;;2.90;2.60;;;;;;;24.92;52.91;96865.98;108388;1268;22734;-82
2022/08/02 10:53:29;;;;;;;2.80;2.50;;;;;;;25.09;54.21;96859.60;108403;1268;22559;-82
2022/08/02 10:56:03;;;;;;;3.40;2.80;;;;;;;25.36;54.41;96864.23;108372;1268;22675;-80
2022/08/02 10:58:35;;;;;;;2.80;2.60;;;;;;;25.42;54.77;96866.25;108367;1268;32389;-80
2022/08/02 11:01:28;;;;;;;3.10;2.50;;;;;;;25.18;53.70;96863.68;108354;1270;25913;-82
2022/08/02 11:04:01;;;;;;;3.00;2.30;;;;;;;25.02;53.81;96871.74;108462;1270;25294;-82
2022/08/02 11:06:35;;;;;;;3.20;2.80;;;;;;;25.14;54.31;96864.10;108421;1270;22653;-81
2022/08/02 11:09:31;;;;;;;3.00;2.50;;;;;;;25.34;54.82;96858.31;108337;1270;24558;-82
2022/08/02 11:12:07;;;;;;;2.90;2.60;;;;;;;25.75;55.21;96855.52;108356;1268;22566;-81
2022/08/02 11:14:40;;;;;;;4.10;2.90;;;;;;;25.83;54.44;96858.09;108410;1269;22631;-81
2022/08/02 11:17:15;;;;;;;4.10;2.40;;;;;;;25.87;54.78;96859.98;108344;1268;26353;-81
2022/08/02 11:20:19;;;;;;;3.00;2.40;;;;;;;25.99;54.04;96857.70;108420;1268;23304;-81
2022/08/02 11:22:53;;;;;;;2.60;1.90;;;;;;;26.04;53.13;96859.93;108394;1270;22664;-83
2022/08/02 11:25:36;;;;;;;2.30;2.20;;;;;;;25.85;52.19;96853.60;108415;1268;22587;-82
2022/08/02 11:28:15;;;;;;;2.40;2.20;;;;;;;25.71;52.72;96849.86;108425;1270;29167;-82
2022/08/02 11:30:56;;;;;;;2.40;2.20;;;;;;;25.76;54.37;96847.52;108408;1270;22552;-82
2022/08/02 11:33:36;;;;;;;2.40;2.20;;;;;;;26.01;53.08;96858.27;108381;1270;22668;-82
2022/08/02 11:36:09;;;;;;;3.20;2.90;;;;;;;26.07;53.34;96862.37;108375;1268;22528;-82
2022/08/02 11:38:40;;;;;;;2.70;2.50;;;;;;;26.31;53.98;96864.31;108298;1270;24426;-82
2022/08/02 11:41:20;;;;;;;3.20;2.80;;;;;;;26.43;52.53;96864.91;108413;1268;22596;-80
2022/08/02 11:43:58;;;;;;;2.70;2.50;;;;;;;26.04;51.46;96869.32;108377;1270;25632;-81
2022/08/02 11:46:30;;;;;;;4.00;2.50;;;;;;;25.70;52.13;96862.97;108428;1269;24293;-82
2022/08/02 11:49:14;;;;;;;3.20;2.50;;;;;;;25.89;53.70;96857.83;108337;1270;27662;-82
2022/08/02 11:52:04;;;;;;;3.40;3.10;;;;;;;25.81;52.06;96859.22;108360;1268;22631;-82
2022/08/02 11:54:39;;;;;;;4.20;3.70;;;;;;;25.34;53.43;96863.42;108382;1268;23230;-82
2022/08/02 11:57:16;;;;;;;3.60;3.20;;;;;;;25.39;54.13;96868.16;108263;1268;30341;-82